Main page
METAR-TAF:

METAR-TAF

Airports :

London City Airport

London, England

latitude: 51-30N, longitude: 000-03E, elevation: 5 m

Current weather observation

The report was made 40 minutes ago, at 21:50 UTC
Wind 14 kt from the West
Temperature 17°C
Humidity 72%
Pressure 1006 hPa
Visibility 10 km or more
Few clouds at a height of 2700 ft
Broken clouds at a height of 3200 ft
Broken clouds at a height of 4400 ft

METAR: EGLC 302150Z AUTO 26014KT 9999 FEW027 BKN032 BKN044 17/12 Q1006

Time: 23:30 (22:30 UTC)

Forecast

The report was made 5 hours and 31 minutes ago, at 16:59 UTC
Forecast valid from 30 at 18 UTC to 30 at 21 UTC
Wind 15 kt from the West with gusts up to 25 kt
Visibility 10 km or more
Scattered clouds at a height of 3000 ft
Becoming
from 30 at 18 UTC to 30 at 21 UTC
Wind 12 kt from the West
Probability 40% :
Temporary
from 30 at 18 UTC to 30 at 20 UTC
Visibility: 6000 m
rain showers

TAF: EGLC 301659Z 3018/3021 26015G25KT 9999 SCT030 BECMG 3018/3021 27012KT PROB40 TEMPO 3018/3020 6000 SHRA

Weather observations and forecasts of more than 4000 airports (METAR and TAF reports).

The available stations are represented by yellow and red dots on the map.

Hover mouse over dot to see the name of the station.

Then click to see weather observations and forecasts.

To change the map : click on the green buttons with a black cross to zoom in, on the green button with a dash to zoom out, or on the green arrows for adjacent maps.


METAR-TAF: